Asiatic Wave — 9V8790 — position and weather

sailwx.info

Track history (hours):
 
Tides and Currents Weather Stations Pressure Air Temp Water Temp Dewpoint Dewpoint Depression Visibility Wind Speed Wind Dir Waves Ship Positions

Asiatic Wave

Last reported at 2016-Feb-12 05:27 UTC. Time now 2016-Feb-12 05:44 UTC.
Position N 34°40' E 135°14'.

Length 150 m; draft 6.9 m.

Type: Ship (hazmat cat A). MMSI: 564211000.

Date/timePositionNaut miles runAvg speedWind from/ knotsBaromVisibWave heightAir tempDewpointWater temp
2016-Feb-12 05:27N 34°40' E 135°14'0 0.0
2016-Feb-12 04:27N 34°40' E 135°14'0 0.0
2016-Feb-12 03:33N 34°40' E 135°14'6 6.0
2016-Feb-12 02:33N 34°35' E 135°09'1414.3
2016-Feb-12 01:33N 34°35' E 134°52'23214.2
2016-Feb-11 09:18N 33°54' E 130°16'1317.8
2016-Feb-11 08:33N 33°47' E 130°03'1817.9
2016-Feb-11 07:33N 33°38' E 129°45'42516.9
2016-Feb-10 06:21N 31°17' E 121°49'911.2
2016-Feb-10 05:33N 31°21' E 121°40'4 3.6
2016-Feb-10 04:30N 31°22' E 121°36'0 0.0
2016-Feb-10 03:30N 31°22' E 121°36'0 0.1
2016-Feb-10 02:33N 31°22' E 121°36'0 0.0
2016-Feb-10 01:30N 31°22' E 121°36'0 0.0
2016-Feb-10 00:33N 31°22' E 121°36'0 0.0
2016-Feb-09 23:33N 31°22' E 121°36'0 0.0
2016-Feb-09 22:14N 31°22' E 121°36'0 0.1
2016-Feb-09 21:32N 31°22' E 121°36'0 0.1
2016-Feb-09 20:31N 31°22' E 121°36'0 0.0
2016-Feb-09 19:28N 31°22' E 121°36'0 0.1
2016-Feb-09 18:32N 31°22' E 121°36'0 0.0
2016-Feb-09 17:22N 31°22' E 121°36'0 0.0
2016-Feb-09 16:33N 31°22' E 121°36'0 0.0
2016-Feb-09 15:27N 31°22' E 121°36'0 0.4
2016-Feb-09 14:33N 31°22' E 121°36'9 8.8
2016-Feb-09 13:34N 31°19' E 121°45'1111.1
2016-Feb-09 12:33N 31°15' E 121°58'9 8.7
2016-Feb-09 11:33N 31°13' E 122°07'9 8.6
2016-Feb-09 10:32N 31°08' E 122°16'  
2016-Feb-06 17:08N 34°55' E 139°23'1018.1
2016-Feb-06 16:33N 35°01' E 139°33'1717.1
2016-Feb-06 15:33N 35°14' E 139°46'1313.2
2016-Feb-06 14:34N 35°27' E 139°41'0 0.5
2016-Feb-06 13:32N 35°27' E 139°41'0 0.0
2016-Feb-06 12:31N 35°27' E 139°41'0 0.0
2016-Feb-06 11:28N 35°27' E 139°41'0 0.0
2016-Feb-06 10:33N 35°27' E 139°41'0 0.0
2016-Feb-06 09:33N 35°27' E 139°41'3 2.9
2016-Feb-06 08:33N 35°25' E 139°44'1111.0
2016-Feb-06 07:34N 35°35' E 139°51'3 2.5
2016-Feb-06 06:31N 35°36' E 139°48'0 0.0
2016-Feb-06 05:33N 35°36' E 139°48'0 0.0
2016-Feb-06 04:33N 35°36' E 139°48'0 0.0
2016-Feb-06 03:32N 35°36' E 139°48'0 0.0
2016-Feb-06 02:32N 35°36' E 139°48'0 0.0
2016-Feb-06 01:32N 35°36' E 139°48'0 0.0
2016-Feb-06 00:22N 35°36' E 139°48'0 0.0
2016-Feb-05 23:28N 35°36' E 139°48'0 0.0
2016-Feb-05 22:33N 35°36' E 139°48'0 0.0
2016-Feb-05 21:30N 35°36' E 139°48'0 0.0
2016-Feb-05 20:32N 35°36' E 139°48'0 0.0
2016-Feb-05 19:29N 35°36' E 139°48'0 0.0
2016-Feb-05 18:32N 35°36' E 139°48'0 0.0
2016-Feb-05 17:31N 35°36' E 139°48'0 0.0
2016-Feb-05 16:31N 35°36' E 139°48'0 0.0
2016-Feb-05 15:30N 35°36' E 139°48'0 0.0
2016-Feb-05 14:33N 35°36' E 139°48'0 0.0
2016-Feb-05 13:33N 35°36' E 139°48'5 4.8
2016-Feb-05 12:33N 35°33' E 139°52'6 5.8
2016-Feb-05 11:33N 35°27' E 139°49'8 7.9
2016-Feb-05 10:33N 35°20' E 139°44'8 8.0
2016-Feb-05 09:33N 35°12' E 139°47'9 8.8
2016-Feb-05 08:32N 35°04' E 139°42'  
2016-Feb-02 21:32N 31°16' E 121°54'1312.7
2016-Feb-02 20:32N 31°20' E 121°40'0 0.1
2016-Feb-02 19:32N 31°20' E 121°40'0 0.0
2016-Feb-02 18:13N 31°20' E 121°40'0 0.0
2016-Feb-02 17:23N 31°20' E 121°40'0 0.0
2016-Feb-02 16:29N 31°20' E 121°40'0 0.1
2016-Feb-02 15:33N 31°20' E 121°40'0 0.1
2016-Feb-02 14:24N 31°20' E 121°40'0 0.0
2016-Feb-02 13:26N 31°20' E 121°40'0 0.1
2016-Feb-02 12:33N 31°20' E 121°40'0 0.0
2016-Feb-02 11:33N 31°20' E 121°40'0 0.0
2016-Feb-02 10:12N 31°20' E 121°40'  
Track history (hours):
 
Tides and Currents Weather Stations Pressure Air Temp Water Temp Dewpoint Dewpoint Depression Visibility Wind Speed Wind Dir Waves Ship Positions

Asiatic Wave

Last reported at 2016-Feb-12 05:27 UTC. Time now 2016-Feb-12 05:44 UTC.
Position N 34°40' E 135°14'.

Length 150 m; draft 6.9 m.

Type: Ship (hazmat cat A). MMSI: 564211000.

Date/timePositionNaut miles runAvg speedWind from/ knotsBaromVisibWave heightAir tempDewpointWater temp
2016-Feb-12 05:27N 34°40' E 135°14'0 0.0
2016-Feb-12 04:27N 34°40' E 135°14'0 0.0
2016-Feb-12 03:33N 34°40' E 135°14'6 6.0
2016-Feb-12 02:33N 34°35' E 135°09'1414.3
2016-Feb-12 01:33N 34°35' E 134°52'23214.2
2016-Feb-11 09:18N 33°54' E 130°16'1317.8
2016-Feb-11 08:33N 33°47' E 130°03'1817.9
2016-Feb-11 07:33N 33°38' E 129°45'42516.9
2016-Feb-10 06:21N 31°17' E 121°49'911.2
2016-Feb-10 05:33N 31°21' E 121°40'4 3.6
2016-Feb-10 04:30N 31°22' E 121°36'0 0.0
2016-Feb-10 03:30N 31°22' E 121°36'0 0.1
2016-Feb-10 02:33N 31°22' E 121°36'0 0.0
2016-Feb-10 01:30N 31°22' E 121°36'0 0.0
2016-Feb-10 00:33N 31°22' E 121°36'0 0.0
2016-Feb-09 23:33N 31°22' E 121°36'0 0.0
2016-Feb-09 22:14N 31°22' E 121°36'0 0.1
2016-Feb-09 21:32N 31°22' E 121°36'0 0.1
2016-Feb-09 20:31N 31°22' E 121°36'0 0.0
2016-Feb-09 19:28N 31°22' E 121°36'0 0.1
2016-Feb-09 18:32N 31°22' E 121°36'0 0.0
2016-Feb-09 17:22N 31°22' E 121°36'0 0.0
2016-Feb-09 16:33N 31°22' E 121°36'0 0.0
2016-Feb-09 15:27N 31°22' E 121°36'0 0.4
2016-Feb-09 14:33N 31°22' E 121°36'9 8.8
2016-Feb-09 13:34N 31°19' E 121°45'1111.1
2016-Feb-09 12:33N 31°15' E 121°58'9 8.7
2016-Feb-09 11:33N 31°13' E 122°07'9 8.6
2016-Feb-09 10:32N 31°08' E 122°16'  
2016-Feb-06 17:08N 34°55' E 139°23'1018.1
2016-Feb-06 16:33N 35°01' E 139°33'1717.1
2016-Feb-06 15:33N 35°14' E 139°46'1313.2
2016-Feb-06 14:34N 35°27' E 139°41'0 0.5
2016-Feb-06 13:32N 35°27' E 139°41'0 0.0
2016-Feb-06 12:31N 35°27' E 139°41'0 0.0
2016-Feb-06 11:28N 35°27' E 139°41'0 0.0
2016-Feb-06 10:33N 35°27' E 139°41'0 0.0
2016-Feb-06 09:33N 35°27' E 139°41'3 2.9
2016-Feb-06 08:33N 35°25' E 139°44'1111.0
2016-Feb-06 07:34N 35°35' E 139°51'3 2.5
2016-Feb-06 06:31N 35°36' E 139°48'0 0.0
2016-Feb-06 05:33N 35°36' E 139°48'0 0.0
2016-Feb-06 04:33N 35°36' E 139°48'0 0.0
2016-Feb-06 03:32N 35°36' E 139°48'0 0.0
2016-Feb-06 02:32N 35°36' E 139°48'0 0.0
2016-Feb-06 01:32N 35°36' E 139°48'0 0.0
2016-Feb-06 00:22N 35°36' E 139°48'0 0.0
2016-Feb-05 23:28N 35°36' E 139°48'0 0.0
2016-Feb-05 22:33N 35°36' E 139°48'0 0.0
2016-Feb-05 21:30N 35°36' E 139°48'0 0.0
2016-Feb-05 20:32N 35°36' E 139°48'0 0.0
2016-Feb-05 19:29N 35°36' E 139°48'0 0.0
2016-Feb-05 18:32N 35°36' E 139°48'0 0.0
2016-Feb-05 17:31N 35°36' E 139°48'0 0.0
2016-Feb-05 16:31N 35°36' E 139°48'0 0.0
2016-Feb-05 15:30N 35°36' E 139°48'0 0.0
2016-Feb-05 14:33N 35°36' E 139°48'0 0.0
2016-Feb-05 13:33N 35°36' E 139°48'5 4.8
2016-Feb-05 12:33N 35°33' E 139°52'6 5.8
2016-Feb-05 11:33N 35°27' E 139°49'8 7.9
2016-Feb-05 10:33N 35°20' E 139°44'8 8.0
2016-Feb-05 09:33N 35°12' E 139°47'9 8.8
2016-Feb-05 08:32N 35°04' E 139°42'  
2016-Feb-02 21:32N 31°16' E 121°54'1312.7
2016-Feb-02 20:32N 31°20' E 121°40'0 0.1
2016-Feb-02 19:32N 31°20' E 121°40'0 0.0
2016-Feb-02 18:13N 31°20' E 121°40'0 0.0
2016-Feb-02 17:23N 31°20' E 121°40'0 0.0
2016-Feb-02 16:29N 31°20' E 121°40'0 0.1
2016-Feb-02 15:33N 31°20' E 121°40'0 0.1
2016-Feb-02 14:24N 31°20' E 121°40'0 0.0
2016-Feb-02 13:26N 31°20' E 121°40'0 0.1
2016-Feb-02 12:33N 31°20' E 121°40'0 0.0
2016-Feb-02 11:33N 31°20' E 121°40'0 0.0
2016-Feb-02 10:12N 31°20' E 121°40'  

Dump ship's entire track history